sensor_id;sensor_type;location;lat;lon;timestamp;pressure;altitude;pressure_sealevel;temperature;humidity
57290;BME280;43523;53.022;-1.178;2023-05-21T00:00:18;101787.93;;;8.94;82.86
57290;BME280;43523;53.022;-1.178;2023-05-21T00:01:20;101786.59;;;8.62;83.47
57290;BME280;43523;53.022;-1.178;2023-05-21T00:02:23;101785.51;;;8.62;82.81
57290;BME280;43523;53.022;-1.178;2023-05-21T00:03:25;101783.67;;;8.37;85.37
57290;BME280;43523;53.022;-1.178;2023-05-21T00:04:27;101786.02;;;8.53;83.73
57290;BME280;43523;53.022;-1.178;2023-05-21T00:05:30;101785.42;;;8.92;82.52
57290;BME280;43523;53.022;-1.178;2023-05-21T00:06:32;101782.41;;;8.33;83.20
57290;BME280;43523;53.022;-1.178;2023-05-21T00:07:34;101784.78;;;8.68;82.54
57290;BME280;43523;53.022;-1.178;2023-05-21T00:08:37;101785.52;;;9.02;81.85
57290;BME280;43523;53.022;-1.178;2023-05-21T00:09:40;101784.07;;;8.53;81.71
57290;BME280;43523;53.022;-1.178;2023-05-21T00:10:42;101783.30;;;8.28;83.04
57290;BME280;43523;53.022;-1.178;2023-05-21T00:11:44;101782.63;;;8.41;83.88
57290;BME280;43523;53.022;-1.178;2023-05-21T00:12:46;101782.36;;;8.13;84.75
57290;BME280;43523;53.022;-1.178;2023-05-21T00:13:49;101780.37;;;8.13;84.73
57290;BME280;43523;53.022;-1.178;2023-05-21T00:14:51;101782.22;;;8.13;84.70
57290;BME280;43523;53.022;-1.178;2023-05-21T00:15:53;101781.60;;;8.39;84.26
57290;BME280;43523;53.022;-1.178;2023-05-21T00:16:56;101781.97;;;8.52;84.50
57290;BME280;43523;53.022;-1.178;2023-05-21T00:17:58;101784.82;;;7.94;87.46
57290;BME280;43523;53.022;-1.178;2023-05-21T00:19:01;101786.44;;;8.09;86.04
57290;BME280;43523;53.022;-1.178;2023-05-21T00:20:04;101786.93;;;8.50;84.89
57290;BME280;43523;53.022;-1.178;2023-05-21T00:21:07;101787.33;;;8.09;83.97
57290;BME280;43523;53.022;-1.178;2023-05-21T00:22:09;101787.22;;;8.27;84.10
57290;BME280;43523;53.022;-1.178;2023-05-21T00:23:11;101787.45;;;8.26;83.72
57290;BME280;43523;53.022;-1.178;2023-05-21T00:24:13;101784.23;;;8.27;83.37
57290;BME280;43523;53.022;-1.178;2023-05-21T00:25:16;101782.67;;;8.30;83.47
57290;BME280;43523;53.022;-1.178;2023-05-21T00:26:18;101785.78;;;8.11;85.63
57290;BME280;43523;53.022;-1.178;2023-05-21T00:27:20;101783.14;;;8.18;86.51
57290;BME280;43523;53.022;-1.178;2023-05-21T00:28:23;101779.67;;;8.15;86.65
57290;BME280;43523;53.022;-1.178;2023-05-21T00:29:25;101781.15;;;7.78;86.99
57290;BME280;43523;53.022;-1.178;2023-05-21T00:30:27;101776.29;;;8.03;87.48
57290;BME280;43523;53.022;-1.178;2023-05-21T00:31:30;101775.30;;;8.12;88.03
57290;BME280;43523;53.022;-1.178;2023-05-21T00:32:32;101773.26;;;8.13;87.70
57290;BME280;43523;53.022;-1.178;2023-05-21T00:33:35;101770.42;;;7.89;87.58
57290;BME280;43523;53.022;-1.178;2023-05-21T00:34:37;101773.64;;;7.90;87.46
57290;BME280;43523;53.022;-1.178;2023-05-21T00:35:40;101772.14;;;8.14;87.49
57290;BME280;43523;53.022;-1.178;2023-05-21T00:36:43;101769.59;;;7.90;87.35
57290;BME280;43523;53.022;-1.178;2023-05-21T00:37:47;101769.31;;;7.90;87.41
57290;BME280;43523;53.022;-1.178;2023-05-21T00:38:49;101767.27;;;8.14;86.86
57290;BME280;43523;53.022;-1.178;2023-05-21T00:39:52;101767.20;;;8.19;86.79
57290;BME280;43523;53.022;-1.178;2023-05-21T00:40:54;101767.77;;;8.18;86.61
57290;BME280;43523;53.022;-1.178;2023-05-21T00:41:56;101768.02;;;8.22;85.85
57290;BME280;43523;53.022;-1.178;2023-05-21T00:42:59;101766.17;;;7.94;86.35
57290;BME280;43523;53.022;-1.178;2023-05-21T00:44:01;101764.39;;;7.94;86.01
57290;BME280;43523;53.022;-1.178;2023-05-21T00:45:05;101765.01;;;7.91;86.68
57290;BME280;43523;53.022;-1.178;2023-05-21T00:46:10;101765.83;;;8.18;86.90
57290;BME280;43523;53.022;-1.178;2023-05-21T00:47:13;101766.63;;;8.14;87.74
57290;BME280;43523;53.022;-1.178;2023-05-21T00:48:16;101768.13;;;8.18;87.80
57290;BME280;43523;53.022;-1.178;2023-05-21T00:49:18;101767.48;;;7.92;87.76
57290;BME280;43523;53.022;-1.178;2023-05-21T00:50:22;101769.45;;;8.19;87.68
57290;BME280;43523;53.022;-1.178;2023-05-21T00:51:24;101771.65;;;8.20;87.19
57290;BME280;43523;53.022;-1.178;2023-05-21T00:52:27;101771.49;;;8.20;87.27
57290;BME280;43523;53.022;-1.178;2023-05-21T00:53:29;101771.92;;;8.21;86.92
57290;BME280;43523;53.022;-1.178;2023-05-21T00:54:32;101771.23;;;7.95;86.24
57290;BME280;43523;53.022;-1.178;2023-05-21T00:55:35;101769.49;;;8.18;86.27
57290;BME280;43523;53.022;-1.178;2023-05-21T00:56:40;101766.32;;;8.17;86.52
57290;BME280;43523;53.022;-1.178;2023-05-21T00:57:43;101770.04;;;7.69;87.98
57290;BME280;43523;53.022;-1.178;2023-05-21T00:58:46;101768.60;;;7.40;91.17
57290;BME280;43523;53.022;-1.178;2023-05-21T00:59:51;101768.03;;;7.59;91.15
57290;BME280;43523;53.022;-1.178;2023-05-21T01:00:54;101766.80;;;7.65;90.89
57290;BME280;43523;53.022;-1.178;2023-05-21T01:01:57;101764.69;;;7.69;91.03
57290;BME280;43523;53.022;-1.178;2023-05-21T01:02:59;101764.41;;;7.46;90.81
57290;BME280;43523;53.022;-1.178;2023-05-21T01:04:03;101763.17;;;7.73;91.14
57290;BME280;43523;53.022;-1.178;2023-05-21T01:05:06;101760.80;;;7.76;91.78
57290;BME280;43523;53.022;-1.178;2023-05-21T01:06:10;101760.33;;;7.75;92.18
57290;BME280;43523;53.022;-1.178;2023-05-21T01:07:12;101759.12;;;7.67;91.43
57290;BME280;43523;53.022;-1.178;2023-05-21T01:08:15;101757.49;;;7.47;91.63
57290;BME280;43523;53.022;-1.178;2023-05-21T01:09:17;101752.51;;;7.82;91.15
57290;BME280;43523;53.022;-1.178;2023-05-21T01:10:20;101747.17;;;7.79;90.78
57290;BME280;43523;53.022;-1.178;2023-05-21T01:11:27;101744.05;;;7.20;95.99
57290;BME280;43523;53.022;-1.178;2023-05-21T01:12:34;101741.22;;;7.27;97.03
57290;BME280;43523;53.022;-1.178;2023-05-21T01:13:39;101737.92;;;7.38;96.80
57290;BME280;43523;53.022;-1.178;2023-05-21T01:14:43;101738.11;;;7.10;96.51
57290;BME280;43523;53.022;-1.178;2023-05-21T01:15:46;101738.51;;;7.07;98.06
57290;BME280;43523;53.022;-1.178;2023-05-21T01:16:51;101736.84;;;7.28;97.25
57290;BME280;43523;53.022;-1.178;2023-05-21T01:17:53;101738.76;;;7.42;96.59
57290;BME280;43523;53.022;-1.178;2023-05-21T01:18:56;101736.80;;;7.36;95.56
57290;BME280;43523;53.022;-1.178;2023-05-21T01:19:59;101739.05;;;7.54;95.64
57290;BME280;43523;53.022;-1.178;2023-05-21T01:21:02;101739.16;;;7.62;93.99
57290;BME280;43523;53.022;-1.178;2023-05-21T01:22:06;101741.90;;;8.15;93.90
57290;BME280;43523;53.022;-1.178;2023-05-21T01:23:08;101739.25;;;7.65;92.52
57290;BME280;43523;53.022;-1.178;2023-05-21T01:24:11;101738.60;;;7.62;92.56
57290;BME280;43523;53.022;-1.178;2023-05-21T01:25:13;101736.83;;;8.03;92.77
57290;BME280;43523;53.022;-1.178;2023-05-21T01:26:16;101732.70;;;7.51;93.43
57290;BME280;43523;53.022;-1.178;2023-05-21T01:27:18;101732.71;;;7.30;94.55
57290;BME280;43523;53.022;-1.178;2023-05-21T01:28:21;101730.85;;;7.13;95.67
57290;BME280;43523;53.022;-1.178;2023-05-21T01:29:23;101729.73;;;6.94;96.31
57290;BME280;43523;53.022;-1.178;2023-05-21T01:30:26;101731.72;;;6.92;97.41
57290;BME280;43523;53.022;-1.178;2023-05-21T01:31:36;101731.61;;;7.18;97.94
57290;BME280;43523;53.022;-1.178;2023-05-21T01:32:46;101729.98;;;6.97;100.00
57290;BME280;43523;53.022;-1.178;2023-05-21T01:33:51;101729.63;;;6.66;100.00
57290;BME280;43523;53.022;-1.178;2023-05-21T01:34:59;101726.89;;;6.94;100.00
57290;BME280;43523;53.022;-1.178;2023-05-21T01:36:06;101725.50;;;7.02;100.00
57290;BME280;43523;53.022;-1.178;2023-05-21T01:37:15;101724.11;;;7.02;100.00
57290;BME280;43523;53.022;-1.178;2023-05-21T01:38:22;101725.33;;;6.50;100.00
57290;BME280;43523;53.022;-1.178;2023-05-21T01:39:31;101729.42;;;5.82;100.00
57290;BME280;43523;53.022;-1.178;2023-05-21T01:40:40;101730.86;;;5.37;100.00
57290;BME280;43523;53.022;-1.178;2023-05-21T01:41:44;101732.28;;;5.61;100.00
57290;BME280;43523;53.022;-1.178;2023-05-21T01:42:47;101732.07;;;6.30;100.00
57290;BME280;43523;53.022;-1.178;2023-05-21T01:43:50;101729.33;;;6.74;100.00
57290;BME280;43523;53.022;-1.178;2023-05-21T01:44:55;101730.76;;;6.98;100.00
57290;BME280;43523;53.022;-1.178;2023-05-21T01:45:58;101729.02;;;7.23;100.00
57290;BME280;43523;53.022;-1.178;2023-05-21T01:47:02;101728.01;;;6.55;100.00
57290;BME280;43523;53.022;-1.178;2023-05-21T01:48:06;101726.10;;;6.39;100.00
57290;BME280;43523;53.022;-1.178;2023-05-21T01:49:09;101725.15;;;6.42;100.00
57290;BME280;43523;53.022;-1.178;2023-05-21T01:50:12;101725.09;;;6.70;100.00
57290;BME280;43523;53.022;-1.178;2023-05-21T01:51:15;101723.58;;;7.04;100.00
57290;BME280;43523;53.022;-1.178;2023-05-21T01:52:18;101725.11;;;7.06;100.00
57290;BME280;43523;53.022;-1.178;2023-05-21T01:53:21;101722.71;;;6.63;100.00
57290;BME280;43523;53.022;-1.178;2023-05-21T01:54:22;101722.99;;;7.18;100.00
57290;BME280;43523;53.022;-1.178;2023-05-21T01:55:25;101727.55;;;7.18;100.00
57290;BME280;43523;53.022;-1.178;2023-05-21T01:56:28;101729.10;;;7.23;100.00
57290;BME280;43523;53.022;-1.178;2023-05-21T01:57:30;101730.72;;;7.26;100.00
57290;BME280;43523;53.022;-1.178;2023-05-21T01:58:33;101733.22;;;6.99;100.00
57290;BME280;43523;53.022;-1.178;2023-05-21T01:59:35;101735.66;;;7.28;100.00
57290;BME280;43523;53.022;-1.178;2023-05-21T02:00:38;101737.69;;;5.71;100.00
57290;BME280;43523;53.022;-1.178;2023-05-21T02:01:40;101735.76;;;6.72;100.00
57290;BME280;43523;53.022;-1.178;2023-05-21T02:02:42;101735.31;;;6.45;100.00
57290;BME280;43523;53.022;-1.178;2023-05-21T02:03:46;101732.88;;;6.02;100.00
57290;BME280;43523;53.022;-1.178;2023-05-21T02:04:48;101733.58;;;6.37;100.00
57290;BME280;43523;53.022;-1.178;2023-05-21T02:05:51;101732.73;;;6.77;100.00
57290;BME280;43523;53.022;-1.178;2023-05-21T02:06:53;101730.82;;;6.89;100.00
57290;BME280;43523;53.022;-1.178;2023-05-21T02:07:55;101729.76;;;6.63;100.00
57290;BME280;43523;53.022;-1.178;2023-05-21T02:08:58;101732.52;;;6.71;100.00
57290;BME280;43523;53.022;-1.178;2023-05-21T02:10:06;101733.62;;;6.88;100.00
57290;BME280;43523;53.022;-1.178;2023-05-21T02:11:08;101736.37;;;6.43;100.00
57290;BME280;43523;53.022;-1.178;2023-05-21T02:12:11;101739.86;;;6.56;100.00
57290;BME280;43523;53.022;-1.178;2023-05-21T02:13:13;101739.78;;;6.60;100.00
57290;BME280;43523;53.022;-1.178;2023-05-21T02:14:16;101739.78;;;6.64;100.00
57290;BME280;43523;53.022;-1.178;2023-05-21T02:15:18;101741.36;;;6.67;100.00
57290;BME280;43523;53.022;-1.178;2023-05-21T02:16:21;101744.25;;;6.69;100.00
57290;BME280;43523;53.022;-1.178;2023-05-21T02:17:23;101743.13;;;6.70;100.00
57290;BME280;43523;53.022;-1.178;2023-05-21T02:18:25;101745.80;;;5.86;100.00
57290;BME280;43523;53.022;-1.178;2023-05-21T02:19:28;101749.23;;;6.14;100.00
57290;BME280;43523;53.022;-1.178;2023-05-21T02:20:31;101748.42;;;6.12;100.00
57290;BME280;43523;53.022;-1.178;2023-05-21T02:21:33;101747.01;;;6.50;100.00
57290;BME280;43523;53.022;-1.178;2023-05-21T02:22:37;101744.79;;;6.43;100.00
57290;BME280;43523;53.022;-1.178;2023-05-21T02:23:41;101745.63;;;6.82;100.00
57290;BME280;43523;53.022;-1.178;2023-05-21T02:24:43;101744.31;;;6.40;100.00
57290;BME280;43523;53.022;-1.178;2023-05-21T02:25:46;101744.12;;;6.89;100.00
57290;BME280;43523;53.022;-1.178;2023-05-21T02:26:48;101744.79;;;6.24;100.00
57290;BME280;43523;53.022;-1.178;2023-05-21T02:27:51;101747.41;;;6.76;100.00
57290;BME280;43523;53.022;-1.178;2023-05-21T02:28:53;101747.00;;;6.73;100.00
57290;BME280;43523;53.022;-1.178;2023-05-21T02:29:56;101748.27;;;6.68;100.00
57290;BME280;43523;53.022;-1.178;2023-05-21T02:30:58;101746.72;;;6.51;100.00
57290;BME280;43523;53.022;-1.178;2023-05-21T02:32:01;101744.43;;;6.15;100.00
57290;BME280;43523;53.022;-1.178;2023-05-21T02:33:04;101745.04;;;6.10;100.00
57290;BME280;43523;53.022;-1.178;2023-05-21T02:34:06;101744.81;;;5.64;100.00
57290;BME280;43523;53.022;-1.178;2023-05-21T02:35:09;101746.55;;;5.64;100.00
57290;BME280;43523;53.022;-1.178;2023-05-21T02:36:12;101744.91;;;5.93;100.00
57290;BME280;43523;53.022;-1.178;2023-05-21T02:37:15;101743.04;;;6.08;100.00
57290;BME280;43523;53.022;-1.178;2023-05-21T02:38:17;101740.33;;;6.39;100.00
57290;BME280;43523;53.022;-1.178;2023-05-21T02:39:20;101740.69;;;6.12;100.00
57290;BME280;43523;53.022;-1.178;2023-05-21T02:40:22;101739.84;;;5.75;100.00
57290;BME280;43523;53.022;-1.178;2023-05-21T02:41:30;101742.51;;;6.08;100.00
57290;BME280;43523;53.022;-1.178;2023-05-21T02:42:38;101741.89;;;6.27;100.00
57290;BME280;43523;53.022;-1.178;2023-05-21T02:43:40;101745.04;;;5.23;100.00
57290;BME280;43523;53.022;-1.178;2023-05-21T02:44:43;101751.45;;;4.41;100.00
57290;BME280;43523;53.022;-1.178;2023-05-21T02:45:46;101748.48;;;4.96;100.00
57290;BME280;43523;53.022;-1.178;2023-05-21T02:46:48;101749.94;;;5.20;100.00
57290;BME280;43523;53.022;-1.178;2023-05-21T02:47:51;101752.30;;;3.92;100.00
57290;BME280;43523;53.022;-1.178;2023-05-21T02:48:53;101753.81;;;3.23;100.00
57290;BME280;43523;53.022;-1.178;2023-05-21T02:49:58;101752.57;;;4.16;100.00
57290;BME280;43523;53.022;-1.178;2023-05-21T02:51:01;101750.51;;;4.10;100.00
57290;BME280;43523;53.022;-1.178;2023-05-21T02:52:04;101747.06;;;4.28;100.00
57290;BME280;43523;53.022;-1.178;2023-05-21T02:53:06;101748.42;;;4.16;100.00
57290;BME280;43523;53.022;-1.178;2023-05-21T02:54:08;101744.30;;;4.22;100.00
57290;BME280;43523;53.022;-1.178;2023-05-21T02:55:11;101743.14;;;5.14;100.00
57290;BME280;43523;53.022;-1.178;2023-05-21T02:56:12;101741.68;;;4.37;100.00
57290;BME280;43523;53.022;-1.178;2023-05-21T02:57:15;101736.22;;;5.00;100.00
57290;BME280;43523;53.022;-1.178;2023-05-21T02:58:17;101739.00;;;3.69;100.00
57290;BME280;43523;53.022;-1.178;2023-05-21T02:59:19;101741.83;;;3.03;100.00
57290;BME280;43523;53.022;-1.178;2023-05-21T03:00:21;101739.13;;;4.38;100.00
57290;BME280;43523;53.022;-1.178;2023-05-21T03:01:23;101737.58;;;4.21;100.00
57290;BME280;43523;53.022;-1.178;2023-05-21T03:02:26;101738.23;;;4.93;100.00
57290;BME280;43523;53.022;-1.178;2023-05-21T03:03:28;101728.23;;;5.54;100.00
57290;BME280;43523;53.022;-1.178;2023-05-21T03:04:30;101723.31;;;5.26;100.00
57290;BME280;43523;53.022;-1.178;2023-05-21T03:05:33;101717.10;;;5.36;100.00
57290;BME280;43523;53.022;-1.178;2023-05-21T03:06:35;101714.39;;;5.65;100.00
57290;BME280;43523;53.022;-1.178;2023-05-21T03:07:38;101713.98;;;5.37;100.00
57290;BME280;43523;53.022;-1.178;2023-05-21T03:08:41;101722.11;;;5.09;100.00
57290;BME280;43523;53.022;-1.178;2023-05-21T03:09:44;101719.56;;;5.17;100.00
57290;BME280;43523;53.022;-1.178;2023-05-21T03:10:47;101716.31;;;5.53;100.00
57290;BME280;43523;53.022;-1.178;2023-05-21T03:11:50;101715.29;;;5.71;100.00
57290;BME280;43523;53.022;-1.178;2023-05-21T03:12:52;101715.94;;;5.84;100.00
57290;BME280;43523;53.022;-1.178;2023-05-21T03:13:54;101713.15;;;5.45;100.00
57290;BME280;43523;53.022;-1.178;2023-05-21T03:14:56;101713.19;;;5.62;100.00
57290;BME280;43523;53.022;-1.178;2023-05-21T03:15:58;101718.33;;;4.98;100.00
57290;BME280;43523;53.022;-1.178;2023-05-21T03:17:01;101715.32;;;5.11;100.00
57290;BME280;43523;53.022;-1.178;2023-05-21T03:18:03;101714.94;;;5.12;100.00
57290;BME280;43523;53.022;-1.178;2023-05-21T03:19:05;101713.69;;;5.19;100.00
57290;BME280;43523;53.022;-1.178;2023-05-21T03:20:09;101713.69;;;4.65;100.00
57290;BME280;43523;53.022;-1.178;2023-05-21T03:21:11;101715.43;;;3.96;100.00
57290;BME280;43523;53.022;-1.178;2023-05-21T03:22:14;101716.18;;;4.15;100.00
57290;BME280;43523;53.022;-1.178;2023-05-21T03:23:16;101718.47;;;3.87;100.00
57290;BME280;43523;53.022;-1.178;2023-05-21T03:24:19;101716.61;;;3.86;100.00
57290;BME280;43523;53.022;-1.178;2023-05-21T03:25:21;101720.14;;;3.82;100.00
57290;BME280;43523;53.022;-1.178;2023-05-21T03:26:23;101719.61;;;4.11;100.00
57290;BME280;43523;53.022;-1.178;2023-05-21T03:27:26;101721.33;;;3.30;100.00
57290;BME280;43523;53.022;-1.178;2023-05-21T03:28:28;101719.61;;;4.08;100.00
57290;BME280;43523;53.022;-1.178;2023-05-21T03:29:31;101722.95;;;4.75;100.00
57290;BME280;43523;53.022;-1.178;2023-05-21T03:30:33;101720.14;;;5.03;100.00
57290;BME280;43523;53.022;-1.178;2023-05-21T03:31:35;101718.95;;;5.35;100.00
57290;BME280;43523;53.022;-1.178;2023-05-21T03:32:38;101717.56;;;5.50;100.00
57290;BME280;43523;53.022;-1.178;2023-05-21T03:33:41;101717.77;;;5.55;100.00
57290;BME280;43523;53.022;-1.178;2023-05-21T03:34:43;101718.06;;;4.74;100.00
57290;BME280;43523;53.022;-1.178;2023-05-21T03:35:46;101719.81;;;5.27;100.00
57290;BME280;43523;53.022;-1.178;2023-05-21T03:36:49;101727.00;;;4.63;100.00
57290;BME280;43523;53.022;-1.178;2023-05-21T03:37:51;101727.99;;;4.83;100.00
57290;BME280;43523;53.022;-1.178;2023-05-21T03:38:53;101727.51;;;3.94;100.00
57290;BME280;43523;53.022;-1.178;2023-05-21T03:39:56;101729.27;;;3.88;100.00
57290;BME280;43523;53.022;-1.178;2023-05-21T03:40:58;101728.62;;;3.55;100.00
57290;BME280;43523;53.022;-1.178;2023-05-21T03:42:00;101727.63;;;4.66;100.00
57290;BME280;43523;53.022;-1.178;2023-05-21T03:43:02;101726.31;;;4.74;100.00
57290;BME280;43523;53.022;-1.178;2023-05-21T03:44:05;101723.82;;;5.01;100.00
57290;BME280;43523;53.022;-1.178;2023-05-21T03:45:08;101725.03;;;4.99;100.00
57290;BME280;43523;53.022;-1.178;2023-05-21T03:46:10;101725.83;;;3.65;100.00
57290;BME280;43523;53.022;-1.178;2023-05-21T03:47:12;101724.03;;;3.76;100.00
57290;BME280;43523;53.022;-1.178;2023-05-21T03:48:14;101727.00;;;2.99;100.00
57290;BME280;43523;53.022;-1.178;2023-05-21T03:49:17;101723.81;;;3.16;100.00
57290;BME280;43523;53.022;-1.178;2023-05-21T03:50:25;101725.43;;;3.29;100.00
57290;BME280;43523;53.022;-1.178;2023-05-21T03:51:27;101726.64;;;3.23;100.00
57290;BME280;43523;53.022;-1.178;2023-05-21T03:52:29;101723.14;;;3.90;100.00
57290;BME280;43523;53.022;-1.178;2023-05-21T03:53:33;101724.59;;;3.38;100.00
57290;BME280;43523;53.022;-1.178;2023-05-21T03:54:35;101725.73;;;3.40;100.00
57290;BME280;43523;53.022;-1.178;2023-05-21T03:55:38;101726.21;;;3.33;100.00
57290;BME280;43523;53.022;-1.178;2023-05-21T03:56:41;101724.99;;;3.21;100.00
57290;BME280;43523;53.022;-1.178;2023-05-21T03:57:43;101722.93;;;2.69;100.00
57290;BME280;43523;53.022;-1.178;2023-05-21T03:58:46;101721.82;;;2.90;100.00
57290;BME280;43523;53.022;-1.178;2023-05-21T03:59:48;101721.56;;;2.88;100.00
57290;BME280;43523;53.022;-1.178;2023-05-21T04:00:50;101713.51;;;3.95;100.00
57290;BME280;43523;53.022;-1.178;2023-05-21T04:01:53;101713.65;;;3.57;100.00
57290;BME280;43523;53.022;-1.178;2023-05-21T04:02:55;101714.74;;;3.96;100.00
57290;BME280;43523;53.022;-1.178;2023-05-21T04:03:57;101720.03;;;3.24;100.00
57290;BME280;43523;53.022;-1.178;2023-05-21T04:05:00;101718.10;;;3.82;100.00
57290;BME280;43523;53.022;-1.178;2023-05-21T04:06:03;101719.36;;;3.77;100.00
57290;BME280;43523;53.022;-1.178;2023-05-21T04:07:05;101720.78;;;3.77;100.00
57290;BME280;43523;53.022;-1.178;2023-05-21T04:08:07;101723.38;;;3.55;100.00
57290;BME280;43523;53.022;-1.178;2023-05-21T04:09:09;101719.01;;;3.58;100.00
57290;BME280;43523;53.022;-1.178;2023-05-21T04:10:12;101719.82;;;3.86;100.00
57290;BME280;43523;53.022;-1.178;2023-05-21T04:11:14;101720.91;;;3.96;100.00
57290;BME280;43523;53.022;-1.178;2023-05-21T04:12:16;101722.67;;;3.93;100.00
57290;BME280;43523;53.022;-1.178;2023-05-21T04:13:19;101723.27;;;3.56;100.00
57290;BME280;43523;53.022;-1.178;2023-05-21T04:14:21;101720.69;;;4.19;100.00
57290;BME280;43523;53.022;-1.178;2023-05-21T04:15:23;101722.27;;;4.58;100.00
57290;BME280;43523;53.022;-1.178;2023-05-21T04:16:25;101722.07;;;5.04;100.00
57290;BME280;43523;53.022;-1.178;2023-05-21T04:17:27;101721.60;;;5.30;100.00
57290;BME280;43523;53.022;-1.178;2023-05-21T04:18:30;101725.57;;;5.43;100.00
57290;BME280;43523;53.022;-1.178;2023-05-21T04:19:33;101723.09;;;5.48;100.00
57290;BME280;43523;53.022;-1.178;2023-05-21T04:20:35;101723.44;;;5.49;100.00
57290;BME280;43523;53.022;-1.178;2023-05-21T04:21:37;101720.63;;;5.35;100.00
57290;BME280;43523;53.022;-1.178;2023-05-21T04:22:39;101721.00;;;5.11;100.00
57290;BME280;43523;53.022;-1.178;2023-05-21T04:23:42;101718.86;;;5.12;100.00
57290;BME280;43523;53.022;-1.178;2023-05-21T04:24:44;101713.62;;;5.32;100.00
57290;BME280;43523;53.022;-1.178;2023-05-21T04:25:46;101710.82;;;4.81;100.00
57290;BME280;43523;53.022;-1.178;2023-05-21T04:26:49;101710.48;;;4.84;100.00
57290;BME280;43523;53.022;-1.178;2023-05-21T04:27:51;101711.81;;;5.04;100.00
57290;BME280;43523;53.022;-1.178;2023-05-21T04:28:53;101710.91;;;4.93;100.00
57290;BME280;43523;53.022;-1.178;2023-05-21T04:29:55;101713.57;;;5.16;100.00
57290;BME280;43523;53.022;-1.178;2023-05-21T04:30:57;101711.16;;;5.38;100.00
57290;BME280;43523;53.022;-1.178;2023-05-21T04:31:59;101709.63;;;5.67;100.00
57290;BME280;43523;53.022;-1.178;2023-05-21T04:33:01;101710.19;;;5.63;100.00
57290;BME280;43523;53.022;-1.178;2023-05-21T04:34:03;101714.20;;;5.27;100.00
57290;BME280;43523;53.022;-1.178;2023-05-21T04:35:06;101712.71;;;5.60;100.00
57290;BME280;43523;53.022;-1.178;2023-05-21T04:36:09;101710.86;;;5.90;100.00
57290;BME280;43523;53.022;-1.178;2023-05-21T04:37:11;101710.76;;;5.57;100.00
57290;BME280;43523;53.022;-1.178;2023-05-21T04:38:14;101712.17;;;5.63;100.00
57290;BME280;43523;53.022;-1.178;2023-05-21T04:39:16;101712.83;;;5.76;100.00
57290;BME280;43523;53.022;-1.178;2023-05-21T04:40:19;101713.66;;;5.88;100.00
57290;BME280;43523;53.022;-1.178;2023-05-21T04:41:21;101711.54;;;5.94;100.00
57290;BME280;43523;53.022;-1.178;2023-05-21T04:42:23;101716.50;;;4.87;100.00
57290;BME280;43523;53.022;-1.178;2023-05-21T04:43:25;101720.36;;;4.73;100.00
57290;BME280;43523;53.022;-1.178;2023-05-21T04:44:27;101720.85;;;4.27;100.00
57290;BME280;43523;53.022;-1.178;2023-05-21T04:45:30;101722.34;;;4.22;100.00
57290;BME280;43523;53.022;-1.178;2023-05-21T04:46:32;101722.11;;;4.36;100.00
57290;BME280;43523;53.022;-1.178;2023-05-21T04:47:35;101719.80;;;4.91;100.00
57290;BME280;43523;53.022;-1.178;2023-05-21T04:48:37;101717.85;;;5.24;100.00
57290;BME280;43523;53.022;-1.178;2023-05-21T04:49:41;101717.54;;;5.43;100.00
57290;BME280;43523;53.022;-1.178;2023-05-21T04:50:43;101713.98;;;4.96;100.00
57290;BME280;43523;53.022;-1.178;2023-05-21T04:51:46;101718.89;;;4.61;100.00
57290;BME280;43523;53.022;-1.178;2023-05-21T04:52:48;101715.30;;;4.89;100.00
57290;BME280;43523;53.022;-1.178;2023-05-21T04:53:50;101710.61;;;5.33;100.00
57290;BME280;43523;53.022;-1.178;2023-05-21T04:54:53;101707.86;;;5.46;100.00
57290;BME280;43523;53.022;-1.178;2023-05-21T04:55:56;101709.74;;;5.01;100.00
57290;BME280;43523;53.022;-1.178;2023-05-21T04:56:58;101712.92;;;4.77;100.00
57290;BME280;43523;53.022;-1.178;2023-05-21T04:58:00;101716.09;;;4.54;100.00
57290;BME280;43523;53.022;-1.178;2023-05-21T04:59:02;101718.56;;;4.52;100.00
57290;BME280;43523;53.022;-1.178;2023-05-21T05:00:06;101719.54;;;3.98;100.00
57290;BME280;43523;53.022;-1.178;2023-05-21T05:01:09;101721.46;;;3.32;100.00
57290;BME280;43523;53.022;-1.178;2023-05-21T05:02:11;101720.52;;;3.60;100.00
57290;BME280;43523;53.022;-1.178;2023-05-21T05:03:14;101717.13;;;4.24;100.00
57290;BME280;43523;53.022;-1.178;2023-05-21T05:04:16;101717.03;;;4.56;100.00
57290;BME280;43523;53.022;-1.178;2023-05-21T05:05:18;101709.50;;;5.18;100.00
57290;BME280;43523;53.022;-1.178;2023-05-21T05:06:21;101709.88;;;5.59;100.00
57290;BME280;43523;53.022;-1.178;2023-05-21T05:07:23;101706.47;;;6.10;100.00
57290;BME280;43523;53.022;-1.178;2023-05-21T05:08:25;101701.87;;;6.05;100.00
57290;BME280;43523;53.022;-1.178;2023-05-21T05:09:28;101702.60;;;6.21;100.00
57290;BME280;43523;53.022;-1.178;2023-05-21T05:10:30;101701.61;;;6.32;100.00
57290;BME280;43523;53.022;-1.178;2023-05-21T05:11:32;101697.49;;;6.16;100.00
57290;BME280;43523;53.022;-1.178;2023-05-21T05:12:34;101698.55;;;6.48;100.00
57290;BME280;43523;53.022;-1.178;2023-05-21T05:13:37;101695.29;;;6.44;100.00
57290;BME280;43523;53.022;-1.178;2023-05-21T05:14:40;101696.88;;;6.48;100.00
57290;BME280;43523;53.022;-1.178;2023-05-21T05:15:42;101696.37;;;6.66;100.00
57290;BME280;43523;53.022;-1.178;2023-05-21T05:16:46;101696.16;;;6.77;100.00
57290;BME280;43523;53.022;-1.178;2023-05-21T05:17:48;101696.37;;;6.84;100.00
57290;BME280;43523;53.022;-1.178;2023-05-21T05:18:51;101698.02;;;6.80;100.00
57290;BME280;43523;53.022;-1.178;2023-05-21T05:19:53;101698.72;;;6.69;100.00
57290;BME280;43523;53.022;-1.178;2023-05-21T05:20:56;101700.57;;;6.29;100.00
57290;BME280;43523;53.022;-1.178;2023-05-21T05:21:58;101696.17;;;6.38;100.00
57290;BME280;43523;53.022;-1.178;2023-05-21T05:23:00;101694.74;;;6.76;100.00
57290;BME280;43523;53.022;-1.178;2023-05-21T05:24:03;101693.07;;;6.87;100.00
57290;BME280;43523;53.022;-1.178;2023-05-21T05:25:06;101691.13;;;6.46;100.00